Bankersmith, Texas
Current Conditions -  °F | °C
As of 2:55 PM on Sunday 23 Nov 2014 (Local Time) from KT82 Reporting Station
Clear Clear  
Wind Chill: 76°   Ceiling: Unl
Heat Index: 77°   Visibility: 10mi
Dew Point: 33°   Wind: 18mph
Humidity: 21%   Direction: 260°W
Pressure: 29.58"   Gusts: 25mph
Location:  30.3069°N, 98.8978°W
Report Text: KT82 232055Z AUTO 26016G22KT 10SM CLR 25/01 A2958 RMK AO2 T02450006
Loading
Personal Weather Stations






























Interactive Weather Map New forecast layout! Learn more

10-Day Weather Forecast

Advertisements
Track Severe Weather on mobile